sensor_id;sensor_type;location;lat;lon;timestamp;P1;durP1;ratioP1;P2;durP2;ratioP2
13461;SDS011;6803;45.264;5.468;2023-03-05T00:01:48;22.57;;;12.47;;
13461;SDS011;6803;45.264;5.468;2023-03-05T00:04:19;25.67;;;13.47;;
13461;SDS011;6803;45.264;5.468;2023-03-05T00:06:50;22.10;;;12.87;;
13461;SDS011;6803;45.264;5.468;2023-03-05T00:09:22;28.17;;;14.07;;
13461;SDS011;6803;45.264;5.468;2023-03-05T00:11:53;26.00;;;14.07;;
13461;SDS011;6803;45.264;5.468;2023-03-05T00:14:24;27.70;;;13.57;;
13461;SDS011;6803;45.264;5.468;2023-03-05T00:16:55;28.40;;;14.50;;
13461;SDS011;6803;45.264;5.468;2023-03-05T00:19:26;28.13;;;14.07;;
13461;SDS011;6803;45.264;5.468;2023-03-05T00:21:57;27.33;;;14.80;;
13461;SDS011;6803;45.264;5.468;2023-03-05T00:24:28;26.73;;;14.10;;
13461;SDS011;6803;45.264;5.468;2023-03-05T00:26:59;28.40;;;14.70;;
13461;SDS011;6803;45.264;5.468;2023-03-05T00:29:30;29.90;;;15.63;;
13461;SDS011;6803;45.264;5.468;2023-03-05T00:32:01;31.47;;;16.00;;
13461;SDS011;6803;45.264;5.468;2023-03-05T00:34:32;25.93;;;15.03;;
13461;SDS011;6803;45.264;5.468;2023-03-05T00:37:04;27.70;;;13.87;;
13461;SDS011;6803;45.264;5.468;2023-03-05T00:39:35;26.67;;;14.27;;
13461;SDS011;6803;45.264;5.468;2023-03-05T00:42:07;27.27;;;14.50;;
13461;SDS011;6803;45.264;5.468;2023-03-05T00:44:38;28.83;;;14.07;;
13461;SDS011;6803;45.264;5.468;2023-03-05T00:47:09;26.50;;;13.07;;
13461;SDS011;6803;45.264;5.468;2023-03-05T00:49:40;26.43;;;13.57;;
13461;SDS011;6803;45.264;5.468;2023-03-05T00:52:10;29.48;;;14.65;;
13461;SDS011;6803;45.264;5.468;2023-03-05T00:54:41;28.70;;;14.67;;
13461;SDS011;6803;45.264;5.468;2023-03-05T00:57:12;29.27;;;14.00;;
13461;SDS011;6803;45.264;5.468;2023-03-05T00:59:43;25.17;;;12.80;;
13461;SDS011;6803;45.264;5.468;2023-03-05T01:02:15;26.57;;;13.10;;
13461;SDS011;6803;45.264;5.468;2023-03-05T01:04:45;28.13;;;13.67;;
13461;SDS011;6803;45.264;5.468;2023-03-05T01:07:16;25.37;;;13.53;;
13461;SDS011;6803;45.264;5.468;2023-03-05T01:09:47;24.77;;;12.70;;
13461;SDS011;6803;45.264;5.468;2023-03-05T01:12:18;33.70;;;15.45;;
13461;SDS011;6803;45.264;5.468;2023-03-05T01:14:50;25.03;;;13.23;;
13461;SDS011;6803;45.264;5.468;2023-03-05T01:17:21;28.17;;;12.43;;
13461;SDS011;6803;45.264;5.468;2023-03-05T01:19:52;26.10;;;13.37;;
13461;SDS011;6803;45.264;5.468;2023-03-05T01:22:23;27.33;;;13.93;;
13461;SDS011;6803;45.264;5.468;2023-03-05T01:24:54;27.20;;;14.40;;
13461;SDS011;6803;45.264;5.468;2023-03-05T01:27:25;30.20;;;14.43;;
13461;SDS011;6803;45.264;5.468;2023-03-05T01:29:56;26.57;;;14.60;;
13461;SDS011;6803;45.264;5.468;2023-03-05T01:32:27;28.67;;;14.50;;
13461;SDS011;6803;45.264;5.468;2023-03-05T01:34:58;29.30;;;13.67;;
13461;SDS011;6803;45.264;5.468;2023-03-05T01:37:30;32.60;;;14.67;;
13461;SDS011;6803;45.264;5.468;2023-03-05T01:40:01;37.17;;;16.47;;
13461;SDS011;6803;45.264;5.468;2023-03-05T01:42:33;35.77;;;15.13;;
13461;SDS011;6803;45.264;5.468;2023-03-05T01:45:05;30.17;;;15.53;;
13461;SDS011;6803;45.264;5.468;2023-03-05T01:47:37;29.97;;;15.17;;
13461;SDS011;6803;45.264;5.468;2023-03-05T01:50:10;34.20;;;16.40;;
13461;SDS011;6803;45.264;5.468;2023-03-05T01:52:44;30.73;;;16.00;;
13461;SDS011;6803;45.264;5.468;2023-03-05T01:55:20;30.83;;;14.93;;
13461;SDS011;6803;45.264;5.468;2023-03-05T01:57:51;31.77;;;16.57;;
13461;SDS011;6803;45.264;5.468;2023-03-05T02:03:06;34.43;;;16.43;;
13461;SDS011;6803;45.264;5.468;2023-03-05T02:05:39;32.07;;;17.20;;
13461;SDS011;6803;45.264;5.468;2023-03-05T02:08:11;38.13;;;17.10;;
13461;SDS011;6803;45.264;5.468;2023-03-05T02:10:45;31.50;;;15.40;;
13461;SDS011;6803;45.264;5.468;2023-03-05T02:13:18;31.07;;;15.10;;
13461;SDS011;6803;45.264;5.468;2023-03-05T02:15:50;35.60;;;16.23;;
13461;SDS011;6803;45.264;5.468;2023-03-05T02:18:23;34.40;;;15.93;;
13461;SDS011;6803;45.264;5.468;2023-03-05T02:20:57;31.70;;;15.20;;
13461;SDS011;6803;45.264;5.468;2023-03-05T02:23:31;38.53;;;16.53;;
13461;SDS011;6803;45.264;5.468;2023-03-05T02:26:05;32.63;;;15.73;;
13461;SDS011;6803;45.264;5.468;2023-03-05T02:28:38;32.27;;;16.37;;
13461;SDS011;6803;45.264;5.468;2023-03-05T02:31:12;36.97;;;16.73;;
13461;SDS011;6803;45.264;5.468;2023-03-05T02:33:45;31.93;;;15.13;;
13461;SDS011;6803;45.264;5.468;2023-03-05T02:36:16;33.90;;;16.40;;
13461;SDS011;6803;45.264;5.468;2023-03-05T02:38:48;37.30;;;16.73;;
13461;SDS011;6803;45.264;5.468;2023-03-05T02:41:19;39.20;;;17.27;;
13461;SDS011;6803;45.264;5.468;2023-03-05T02:43:51;37.23;;;17.83;;
13461;SDS011;6803;45.264;5.468;2023-03-05T02:46:22;36.83;;;16.93;;
13461;SDS011;6803;45.264;5.468;2023-03-05T02:48:53;39.17;;;16.80;;
13461;SDS011;6803;45.264;5.468;2023-03-05T02:51:24;35.77;;;15.97;;
13461;SDS011;6803;45.264;5.468;2023-03-05T02:53:54;34.20;;;16.07;;
13461;SDS011;6803;45.264;5.468;2023-03-05T02:56:26;37.30;;;17.73;;
13461;SDS011;6803;45.264;5.468;2023-03-05T02:58:57;38.13;;;18.43;;
13461;SDS011;6803;45.264;5.468;2023-03-05T03:01:28;36.17;;;18.23;;
13461;SDS011;6803;45.264;5.468;2023-03-05T03:03:59;39.73;;;18.40;;
13461;SDS011;6803;45.264;5.468;2023-03-05T03:06:30;34.80;;;17.70;;
13461;SDS011;6803;45.264;5.468;2023-03-05T03:09:02;38.60;;;18.37;;
13461;SDS011;6803;45.264;5.468;2023-03-05T03:11:33;42.67;;;18.17;;
13461;SDS011;6803;45.264;5.468;2023-03-05T03:14:04;41.23;;;17.73;;
13461;SDS011;6803;45.264;5.468;2023-03-05T03:16:35;37.73;;;18.07;;
13461;SDS011;6803;45.264;5.468;2023-03-05T03:19:06;40.70;;;19.27;;
13461;SDS011;6803;45.264;5.468;2023-03-05T03:21:38;41.30;;;19.50;;
13461;SDS011;6803;45.264;5.468;2023-03-05T03:24:09;43.07;;;18.97;;
13461;SDS011;6803;45.264;5.468;2023-03-05T03:26:39;45.80;;;17.80;;
13461;SDS011;6803;45.264;5.468;2023-03-05T03:29:10;50.27;;;21.37;;
13461;SDS011;6803;45.264;5.468;2023-03-05T03:31:41;57.00;;;23.53;;
13461;SDS011;6803;45.264;5.468;2023-03-05T03:34:12;48.63;;;20.53;;
13461;SDS011;6803;45.264;5.468;2023-03-05T03:36:44;48.73;;;20.67;;
13461;SDS011;6803;45.264;5.468;2023-03-05T03:39:16;45.53;;;21.40;;
13461;SDS011;6803;45.264;5.468;2023-03-05T03:41:48;46.87;;;21.33;;
13461;SDS011;6803;45.264;5.468;2023-03-05T03:44:19;39.27;;;18.80;;
13461;SDS011;6803;45.264;5.468;2023-03-05T03:46:51;45.57;;;22.23;;
13461;SDS011;6803;45.264;5.468;2023-03-05T03:49:23;49.30;;;20.27;;
13461;SDS011;6803;45.264;5.468;2023-03-05T03:51:55;44.43;;;20.40;;
13461;SDS011;6803;45.264;5.468;2023-03-05T03:54:26;46.10;;;20.10;;
13461;SDS011;6803;45.264;5.468;2023-03-05T03:56:57;47.80;;;20.57;;
13461;SDS011;6803;45.264;5.468;2023-03-05T03:59:27;44.77;;;20.43;;
13461;SDS011;6803;45.264;5.468;2023-03-05T04:01:59;46.57;;;21.57;;
13461;SDS011;6803;45.264;5.468;2023-03-05T04:04:30;47.87;;;21.80;;
13461;SDS011;6803;45.264;5.468;2023-03-05T04:07:02;46.87;;;20.90;;
13461;SDS011;6803;45.264;5.468;2023-03-05T04:09:32;58.60;;;24.00;;
13461;SDS011;6803;45.264;5.468;2023-03-05T04:12:04;49.10;;;21.20;;
13461;SDS011;6803;45.264;5.468;2023-03-05T04:14:36;51.57;;;23.13;;
13461;SDS011;6803;45.264;5.468;2023-03-05T04:17:07;48.83;;;21.70;;
13461;SDS011;6803;45.264;5.468;2023-03-05T04:19:38;50.80;;;22.67;;
13461;SDS011;6803;45.264;5.468;2023-03-05T04:22:10;56.43;;;23.50;;
13461;SDS011;6803;45.264;5.468;2023-03-05T04:24:42;52.03;;;22.50;;
13461;SDS011;6803;45.264;5.468;2023-03-05T04:27:14;42.70;;;21.53;;
13461;SDS011;6803;45.264;5.468;2023-03-05T04:29:45;57.97;;;24.70;;
13461;SDS011;6803;45.264;5.468;2023-03-05T04:32:16;50.53;;;23.17;;
13461;SDS011;6803;45.264;5.468;2023-03-05T04:34:49;57.50;;;25.33;;
13461;SDS011;6803;45.264;5.468;2023-03-05T04:37:20;51.17;;;23.00;;
13461;SDS011;6803;45.264;5.468;2023-03-05T04:39:51;49.03;;;22.63;;
13461;SDS011;6803;45.264;5.468;2023-03-05T04:42:22;42.73;;;20.50;;
13461;SDS011;6803;45.264;5.468;2023-03-05T04:44:53;48.90;;;20.80;;
13461;SDS011;6803;45.264;5.468;2023-03-05T04:47:24;52.43;;;22.40;;
13461;SDS011;6803;45.264;5.468;2023-03-05T04:49:55;52.33;;;24.33;;
13461;SDS011;6803;45.264;5.468;2023-03-05T04:52:26;49.50;;;22.33;;
13461;SDS011;6803;45.264;5.468;2023-03-05T04:54:57;48.90;;;22.87;;
13461;SDS011;6803;45.264;5.468;2023-03-05T04:57:27;58.77;;;24.50;;
13461;SDS011;6803;45.264;5.468;2023-03-05T04:59:58;60.70;;;24.03;;
13461;SDS011;6803;45.264;5.468;2023-03-05T05:02:31;57.40;;;25.47;;
13461;SDS011;6803;45.264;5.468;2023-03-05T05:05:03;56.43;;;24.70;;
13461;SDS011;6803;45.264;5.468;2023-03-05T05:07:35;56.93;;;24.80;;
13461;SDS011;6803;45.264;5.468;2023-03-05T05:10:07;51.03;;;24.07;;
13461;SDS011;6803;45.264;5.468;2023-03-05T05:12:40;48.80;;;24.53;;
13461;SDS011;6803;45.264;5.468;2023-03-05T05:15:11;52.87;;;24.17;;
13461;SDS011;6803;45.264;5.468;2023-03-05T05:17:42;56.47;;;22.53;;
13461;SDS011;6803;45.264;5.468;2023-03-05T05:20:14;52.43;;;22.57;;
13461;SDS011;6803;45.264;5.468;2023-03-05T05:22:45;61.60;;;24.10;;
13461;SDS011;6803;45.264;5.468;2023-03-05T05:25:17;53.80;;;22.17;;
13461;SDS011;6803;45.264;5.468;2023-03-05T05:27:48;50.93;;;24.27;;
13461;SDS011;6803;45.264;5.468;2023-03-05T05:30:19;58.33;;;25.90;;
13461;SDS011;6803;45.264;5.468;2023-03-05T05:32:50;59.60;;;26.20;;
13461;SDS011;6803;45.264;5.468;2023-03-05T05:35:21;54.77;;;23.13;;
13461;SDS011;6803;45.264;5.468;2023-03-05T05:37:52;50.87;;;23.23;;
13461;SDS011;6803;45.264;5.468;2023-03-05T05:40:23;59.47;;;25.23;;
13461;SDS011;6803;45.264;5.468;2023-03-05T05:42:53;64.07;;;24.83;;
13461;SDS011;6803;45.264;5.468;2023-03-05T05:45:24;55.83;;;25.13;;
13461;SDS011;6803;45.264;5.468;2023-03-05T05:47:56;60.57;;;25.43;;
13461;SDS011;6803;45.264;5.468;2023-03-05T05:50:27;58.80;;;23.23;;
13461;SDS011;6803;45.264;5.468;2023-03-05T05:52:58;63.17;;;26.07;;
13461;SDS011;6803;45.264;5.468;2023-03-05T05:55:29;63.97;;;24.53;;
13461;SDS011;6803;45.264;5.468;2023-03-05T05:58:00;57.40;;;24.83;;
13461;SDS011;6803;45.264;5.468;2023-03-05T06:00:31;61.63;;;26.77;;
13461;SDS011;6803;45.264;5.468;2023-03-05T06:03:02;61.10;;;29.00;;
13461;SDS011;6803;45.264;5.468;2023-03-05T06:05:34;53.07;;;25.23;;
13461;SDS011;6803;45.264;5.468;2023-03-05T06:08:05;60.30;;;25.13;;
13461;SDS011;6803;45.264;5.468;2023-03-05T06:10:36;56.33;;;25.23;;
13461;SDS011;6803;45.264;5.468;2023-03-05T06:13:07;53.43;;;23.27;;
13461;SDS011;6803;45.264;5.468;2023-03-05T06:15:38;57.27;;;23.27;;
13461;SDS011;6803;45.264;5.468;2023-03-05T06:18:09;57.70;;;25.03;;
13461;SDS011;6803;45.264;5.468;2023-03-05T06:20:40;52.40;;;22.33;;
13461;SDS011;6803;45.264;5.468;2023-03-05T06:23:11;57.40;;;22.97;;
13461;SDS011;6803;45.264;5.468;2023-03-05T06:25:42;62.37;;;27.70;;
13461;SDS011;6803;45.264;5.468;2023-03-05T06:28:14;56.77;;;23.93;;
13461;SDS011;6803;45.264;5.468;2023-03-05T06:30:46;56.67;;;24.30;;
13461;SDS011;6803;45.264;5.468;2023-03-05T06:33:17;58.10;;;26.07;;
13461;SDS011;6803;45.264;5.468;2023-03-05T06:35:48;53.93;;;25.60;;
13461;SDS011;6803;45.264;5.468;2023-03-05T06:38:19;52.77;;;23.60;;
13461;SDS011;6803;45.264;5.468;2023-03-05T06:40:50;53.60;;;24.10;;
13461;SDS011;6803;45.264;5.468;2023-03-05T06:43:21;61.40;;;26.10;;
13461;SDS011;6803;45.264;5.468;2023-03-05T06:46:00;50.87;;;21.70;;
13461;SDS011;6803;45.264;5.468;2023-03-05T06:48:32;62.67;;;26.50;;
13461;SDS011;6803;45.264;5.468;2023-03-05T06:51:04;60.47;;;26.73;;
13461;SDS011;6803;45.264;5.468;2023-03-05T06:53:36;60.43;;;28.13;;
13461;SDS011;6803;45.264;5.468;2023-03-05T06:56:07;56.73;;;26.10;;
13461;SDS011;6803;45.264;5.468;2023-03-05T06:58:41;62.10;;;27.63;;
13461;SDS011;6803;45.264;5.468;2023-03-05T07:01:12;54.83;;;25.77;;
13461;SDS011;6803;45.264;5.468;2023-03-05T07:03:43;60.30;;;27.07;;
13461;SDS011;6803;45.264;5.468;2023-03-05T07:06:16;54.00;;;24.57;;
13461;SDS011;6803;45.264;5.468;2023-03-05T07:08:48;64.30;;;27.23;;
13461;SDS011;6803;45.264;5.468;2023-03-05T07:11:19;63.73;;;25.83;;
13461;SDS011;6803;45.264;5.468;2023-03-05T07:13:50;59.53;;;26.23;;
13461;SDS011;6803;45.264;5.468;2023-03-05T07:16:22;58.40;;;25.53;;
13461;SDS011;6803;45.264;5.468;2023-03-05T07:18:54;62.53;;;27.90;;
13461;SDS011;6803;45.264;5.468;2023-03-05T07:21:27;63.03;;;26.97;;
13461;SDS011;6803;45.264;5.468;2023-03-05T07:24:00;58.33;;;26.43;;
13461;SDS011;6803;45.264;5.468;2023-03-05T07:26:31;64.17;;;26.47;;
13461;SDS011;6803;45.264;5.468;2023-03-05T07:29:03;67.27;;;28.73;;
13461;SDS011;6803;45.264;5.468;2023-03-05T07:31:34;61.37;;;29.23;;
13461;SDS011;6803;45.264;5.468;2023-03-05T07:34:05;61.90;;;27.63;;
13461;SDS011;6803;45.264;5.468;2023-03-05T07:36:37;58.83;;;26.60;;
13461;SDS011;6803;45.264;5.468;2023-03-05T07:39:09;56.03;;;27.57;;
13461;SDS011;6803;45.264;5.468;2023-03-05T07:41:41;58.33;;;27.27;;
13461;SDS011;6803;45.264;5.468;2023-03-05T07:44:12;54.07;;;24.93;;
13461;SDS011;6803;45.264;5.468;2023-03-05T07:46:44;58.63;;;26.23;;
13461;SDS011;6803;45.264;5.468;2023-03-05T07:49:15;58.83;;;26.37;;
13461;SDS011;6803;45.264;5.468;2023-03-05T07:51:46;59.53;;;26.27;;
13461;SDS011;6803;45.264;5.468;2023-03-05T07:54:20;59.37;;;27.70;;
13461;SDS011;6803;45.264;5.468;2023-03-05T07:56:52;56.80;;;27.03;;
13461;SDS011;6803;45.264;5.468;2023-03-05T07:59:24;53.23;;;26.57;;
13461;SDS011;6803;45.264;5.468;2023-03-05T08:01:56;60.43;;;25.30;;
13461;SDS011;6803;45.264;5.468;2023-03-05T08:04:27;53.70;;;25.73;;
13461;SDS011;6803;45.264;5.468;2023-03-05T08:06:59;54.40;;;25.40;;
13461;SDS011;6803;45.264;5.468;2023-03-05T08:09:31;57.77;;;27.43;;
13461;SDS011;6803;45.264;5.468;2023-03-05T08:12:02;60.07;;;27.17;;
13461;SDS011;6803;45.264;5.468;2023-03-05T08:14:42;51.23;;;24.57;;
13461;SDS011;6803;45.264;5.468;2023-03-05T08:17:15;51.13;;;25.37;;
13461;SDS011;6803;45.264;5.468;2023-03-05T08:19:47;49.43;;;25.30;;
13461;SDS011;6803;45.264;5.468;2023-03-05T08:22:21;52.53;;;23.90;;
13461;SDS011;6803;45.264;5.468;2023-03-05T08:24:53;56.47;;;23.70;;
13461;SDS011;6803;45.264;5.468;2023-03-05T08:27:25;51.67;;;25.20;;
13461;SDS011;6803;45.264;5.468;2023-03-05T08:29:56;49.20;;;24.27;;
13461;SDS011;6803;45.264;5.468;2023-03-05T08:32:30;48.60;;;24.97;;
13461;SDS011;6803;45.264;5.468;2023-03-05T08:35:02;50.77;;;25.03;;
13461;SDS011;6803;45.264;5.468;2023-03-05T08:37:36;55.43;;;25.60;;
13461;SDS011;6803;45.264;5.468;2023-03-05T08:40:09;57.47;;;25.50;;
13461;SDS011;6803;45.264;5.468;2023-03-05T08:42:42;49.93;;;25.30;;
13461;SDS011;6803;45.264;5.468;2023-03-05T08:45:13;48.50;;;24.70;;
13461;SDS011;6803;45.264;5.468;2023-03-05T08:47:44;56.87;;;26.27;;
13461;SDS011;6803;45.264;5.468;2023-03-05T08:50:15;50.40;;;24.27;;
13461;SDS011;6803;45.264;5.468;2023-03-05T08:52:49;51.53;;;24.23;;
13461;SDS011;6803;45.264;5.468;2023-03-05T08:55:20;46.67;;;19.87;;
13461;SDS011;6803;45.264;5.468;2023-03-05T08:57:50;50.40;;;24.33;;
13461;SDS011;6803;45.264;5.468;2023-03-05T09:00:22;50.78;;;27.07;;
13461;SDS011;6803;45.264;5.468;2023-03-05T09:02:54;50.67;;;25.40;;
13461;SDS011;6803;45.264;5.468;2023-03-05T09:05:26;50.03;;;24.47;;
13461;SDS011;6803;45.264;5.468;2023-03-05T09:07:58;52.30;;;24.93;;
13461;SDS011;6803;45.264;5.468;2023-03-05T09:10:29;52.30;;;25.67;;
13461;SDS011;6803;45.264;5.468;2023-03-05T09:13:01;50.50;;;25.03;;
13461;SDS011;6803;45.264;5.468;2023-03-05T09:15:32;49.63;;;24.40;;
13461;SDS011;6803;45.264;5.468;2023-03-05T09:18:04;47.00;;;24.13;;
13461;SDS011;6803;45.264;5.468;2023-03-05T09:20:36;58.17;;;25.17;;
13461;SDS011;6803;45.264;5.468;2023-03-05T09:23:07;48.13;;;24.43;;
13461;SDS011;6803;45.264;5.468;2023-03-05T09:25:39;46.50;;;23.43;;
13461;SDS011;6803;45.264;5.468;2023-03-05T09:28:10;47.23;;;23.90;;
13461;SDS011;6803;45.264;5.468;2023-03-05T09:30:41;45.77;;;24.37;;
13461;SDS011;6803;45.264;5.468;2023-03-05T09:33:13;45.17;;;23.97;;
13461;SDS011;6803;45.264;5.468;2023-03-05T09:35:44;47.83;;;23.90;;
13461;SDS011;6803;45.264;5.468;2023-03-05T09:38:15;47.20;;;24.73;;
13461;SDS011;6803;45.264;5.468;2023-03-05T09:40:51;43.30;;;22.97;;
13461;SDS011;6803;45.264;5.468;2023-03-05T09:43:27;46.00;;;23.67;;
13461;SDS011;6803;45.264;5.468;2023-03-05T09:46:12;47.40;;;24.27;;
13461;SDS011;6803;45.264;5.468;2023-03-05T09:48:49;42.60;;;22.40;;
13461;SDS011;6803;45.264;5.468;2023-03-05T09:51:22;47.37;;;24.53;;
13461;SDS011;6803;45.264;5.468;2023-03-05T09:53:57;48.40;;;23.73;;
13461;SDS011;6803;45.264;5.468;2023-03-05T09:56:38;49.77;;;24.30;;
13461;SDS011;6803;45.264;5.468;2023-03-05T09:59:18;45.63;;;22.03;;
13461;SDS011;6803;45.264;5.468;2023-03-05T10:01:55;43.87;;;23.57;;
13461;SDS011;6803;45.264;5.468;2023-03-05T10:04:31;42.17;;;21.03;;
13461;SDS011;6803;45.264;5.468;2023-03-05T10:07:05;45.20;;;23.37;;
13461;SDS011;6803;45.264;5.468;2023-03-05T10:09:42;45.83;;;24.50;;
13461;SDS011;6803;45.264;5.468;2023-03-05T10:12:19;45.80;;;24.07;;
13461;SDS011;6803;45.264;5.468;2023-03-05T10:14:54;42.03;;;22.83;;
13461;SDS011;6803;45.264;5.468;2023-03-05T10:17:34;45.50;;;22.77;;
13461;SDS011;6803;45.264;5.468;2023-03-05T10:23:28;41.10;;;22.27;;
13461;SDS011;6803;45.264;5.468;2023-03-05T10:26:06;42.00;;;23.43;;
13461;SDS011;6803;45.264;5.468;2023-03-05T10:28:44;47.33;;;23.77;;
13461;SDS011;6803;45.264;5.468;2023-03-05T10:31:32;41.87;;;23.93;;
13461;SDS011;6803;45.264;5.468;2023-03-05T10:34:24;40.63;;;21.37;;
13461;SDS011;6803;45.264;5.468;2023-03-05T10:37:03;38.90;;;20.60;;
13461;SDS011;6803;45.264;5.468;2023-03-05T10:39:42;40.00;;;22.77;;
13461;SDS011;6803;45.264;5.468;2023-03-05T10:42:39;39.33;;;20.97;;
13461;SDS011;6803;45.264;5.468;2023-03-05T10:45:13;41.93;;;23.27;;
13461;SDS011;6803;45.264;5.468;2023-03-05T10:47:47;40.23;;;20.80;;
13461;SDS011;6803;45.264;5.468;2023-03-05T10:50:21;42.50;;;21.10;;
13461;SDS011;6803;45.264;5.468;2023-03-05T10:52:57;39.53;;;22.37;;
13461;SDS011;6803;45.264;5.468;2023-03-05T10:55:32;44.50;;;22.13;;
13461;SDS011;6803;45.264;5.468;2023-03-05T10:58:08;43.90;;;21.33;;
13461;SDS011;6803;45.264;5.468;2023-03-05T11:00:40;36.03;;;20.77;;
13461;SDS011;6803;45.264;5.468;2023-03-05T11:06:13;39.60;;;22.00;;
13461;SDS011;6803;45.264;5.468;2023-03-05T11:08:52;43.07;;;21.40;;
13461;SDS011;6803;45.264;5.468;2023-03-05T11:11:23;41.77;;;23.63;;
13461;SDS011;6803;45.264;5.468;2023-03-05T11:14:01;39.10;;;22.57;;
13461;SDS011;6803;45.264;5.468;2023-03-05T11:16:45;39.70;;;21.60;;
13461;SDS011;6803;45.264;5.468;2023-03-05T11:19:16;31.10;;;15.50;;
13461;SDS011;6803;45.264;5.468;2023-03-05T11:22:04;40.77;;;21.83;;
13461;SDS011;6803;45.264;5.468;2023-03-05T11:24:38;35.50;;;19.30;;
13461;SDS011;6803;45.264;5.468;2023-03-05T11:27:25;38.63;;;18.37;;
13461;SDS011;6803;45.264;5.468;2023-03-05T11:29:58;36.93;;;20.10;;
13461;SDS011;6803;45.264;5.468;2023-03-05T11:32:30;29.37;;;16.23;;
13461;SDS011;6803;45.264;5.468;2023-03-05T11:35:01;37.13;;;20.17;;
13461;SDS011;6803;45.264;5.468;2023-03-05T11:37:35;42.60;;;22.23;;
13461;SDS011;6803;45.264;5.468;2023-03-05T11:40:18;34.40;;;19.40;;
13461;SDS011;6803;45.264;5.468;2023-03-05T11:42:52;41.13;;;21.83;;
13461;SDS011;6803;45.264;5.468;2023-03-05T11:45:25;38.53;;;22.77;;
13461;SDS011;6803;45.264;5.468;2023-03-05T11:48:00;39.13;;;21.10;;
13461;SDS011;6803;45.264;5.468;2023-03-05T11:50:36;38.27;;;22.10;;
13461;SDS011;6803;45.264;5.468;2023-03-05T11:53:11;37.97;;;20.70;;
13461;SDS011;6803;45.264;5.468;2023-03-05T11:55:45;38.00;;;21.47;;
13461;SDS011;6803;45.264;5.468;2023-03-05T11:58:24;39.13;;;22.57;;
13461;SDS011;6803;45.264;5.468;2023-03-05T12:00:58;39.10;;;22.87;;
13461;SDS011;6803;45.264;5.468;2023-03-05T12:03:31;38.90;;;22.90;;
13461;SDS011;6803;45.264;5.468;2023-03-05T12:06:06;37.40;;;22.10;;
13461;SDS011;6803;45.264;5.468;2023-03-05T12:08:40;38.37;;;24.03;;
13461;SDS011;6803;45.264;5.468;2023-03-05T12:11:16;45.70;;;23.70;;
13461;SDS011;6803;45.264;5.468;2023-03-05T12:13:50;39.67;;;23.97;;
13461;SDS011;6803;45.264;5.468;2023-03-05T12:16:28;43.10;;;24.67;;
13461;SDS011;6803;45.264;5.468;2023-03-05T12:19:09;47.33;;;26.60;;
13461;SDS011;6803;45.264;5.468;2023-03-05T12:21:45;41.63;;;23.60;;
13461;SDS011;6803;45.264;5.468;2023-03-05T12:24:34;44.50;;;24.57;;
13461;SDS011;6803;45.264;5.468;2023-03-05T12:27:12;46.20;;;24.77;;
13461;SDS011;6803;45.264;5.468;2023-03-05T12:29:46;49.97;;;26.10;;
13461;SDS011;6803;45.264;5.468;2023-03-05T12:35:34;41.97;;;24.07;;
13461;SDS011;6803;45.264;5.468;2023-03-05T12:44:20;38.37;;;22.60;;
13461;SDS011;6803;45.264;5.468;2023-03-05T12:50:09;43.80;;;24.00;;
13461;SDS011;6803;45.264;5.468;2023-03-05T12:53:03;36.10;;;23.10;;
13461;SDS011;6803;45.264;5.468;2023-03-05T12:55:36;39.27;;;23.43;;
13461;SDS011;6803;45.264;5.468;2023-03-05T12:58:12;45.90;;;25.63;;
13461;SDS011;6803;45.264;5.468;2023-03-05T13:00:45;41.30;;;23.20;;
13461;SDS011;6803;45.264;5.468;2023-03-05T13:03:19;39.67;;;24.27;;
13461;SDS011;6803;45.264;5.468;2023-03-05T13:05:53;39.63;;;24.03;;
13461;SDS011;6803;45.264;5.468;2023-03-05T13:08:26;45.33;;;23.70;;
13461;SDS011;6803;45.264;5.468;2023-03-05T13:10:59;46.20;;;23.80;;
13461;SDS011;6803;45.264;5.468;2023-03-05T13:13:34;40.20;;;24.37;;
13461;SDS011;6803;45.264;5.468;2023-03-05T13:16:13;43.33;;;25.13;;
13461;SDS011;6803;45.264;5.468;2023-03-05T13:18:45;41.90;;;24.30;;
13461;SDS011;6803;45.264;5.468;2023-03-05T13:21:19;39.03;;;22.70;;
13461;SDS011;6803;45.264;5.468;2023-03-05T13:23:52;39.87;;;23.90;;
13461;SDS011;6803;45.264;5.468;2023-03-05T13:29:15;43.43;;;24.27;;
13461;SDS011;6803;45.264;5.468;2023-03-05T13:31:54;39.93;;;23.70;;
13461;SDS011;6803;45.264;5.468;2023-03-05T13:34:27;42.83;;;24.07;;
13461;SDS011;6803;45.264;5.468;2023-03-05T13:37:03;39.17;;;23.73;;
13461;SDS011;6803;45.264;5.468;2023-03-05T13:39:36;37.43;;;23.20;;
13461;SDS011;6803;45.264;5.468;2023-03-05T13:42:15;40.23;;;23.47;;
13461;SDS011;6803;45.264;5.468;2023-03-05T13:44:53;39.63;;;22.57;;
13461;SDS011;6803;45.264;5.468;2023-03-05T13:47:28;41.27;;;22.63;;
13461;SDS011;6803;45.264;5.468;2023-03-05T13:50:00;39.33;;;23.03;;
13461;SDS011;6803;45.264;5.468;2023-03-05T13:52:33;36.73;;;22.00;;
13461;SDS011;6803;45.264;5.468;2023-03-05T13:55:11;38.80;;;22.27;;
13461;SDS011;6803;45.264;5.468;2023-03-05T13:57:45;38.80;;;22.33;;
13461;SDS011;6803;45.264;5.468;2023-03-05T14:00:29;38.27;;;21.77;;
13461;SDS011;6803;45.264;5.468;2023-03-05T14:05:52;35.07;;;21.03;;
13461;SDS011;6803;45.264;5.468;2023-03-05T14:08:24;39.93;;;22.23;;
13461;SDS011;6803;45.264;5.468;2023-03-05T14:10:56;37.60;;;21.93;;
13461;SDS011;6803;45.264;5.468;2023-03-05T14:13:49;37.87;;;21.27;;
13461;SDS011;6803;45.264;5.468;2023-03-05T14:16:27;37.00;;;20.33;;
13461;SDS011;6803;45.264;5.468;2023-03-05T14:19:01;39.63;;;21.87;;
13461;SDS011;6803;45.264;5.468;2023-03-05T14:21:44;33.83;;;20.27;;
13461;SDS011;6803;45.264;5.468;2023-03-05T14:24:20;34.80;;;21.13;;
13461;SDS011;6803;45.264;5.468;2023-03-05T14:26:55;35.23;;;19.80;;
13461;SDS011;6803;45.264;5.468;2023-03-05T14:29:30;34.30;;;20.20;;
13461;SDS011;6803;45.264;5.468;2023-03-05T14:32:03;31.63;;;19.63;;
13461;SDS011;6803;45.264;5.468;2023-03-05T14:34:36;38.73;;;20.90;;
13461;SDS011;6803;45.264;5.468;2023-03-05T14:37:15;38.27;;;20.40;;
13461;SDS011;6803;45.264;5.468;2023-03-05T14:39:55;34.47;;;19.93;;
13461;SDS011;6803;45.264;5.468;2023-03-05T14:42:28;42.10;;;21.57;;
13461;SDS011;6803;45.264;5.468;2023-03-05T14:45:10;38.10;;;21.53;;
13461;SDS011;6803;45.264;5.468;2023-03-05T14:47:42;36.90;;;20.37;;
13461;SDS011;6803;45.264;5.468;2023-03-05T14:50:15;38.23;;;21.57;;
13461;SDS011;6803;45.264;5.468;2023-03-05T14:52:48;39.77;;;20.03;;
13461;SDS011;6803;45.264;5.468;2023-03-05T14:55:23;34.97;;;19.77;;
13461;SDS011;6803;45.264;5.468;2023-03-05T14:57:58;33.53;;;19.40;;
13461;SDS011;6803;45.264;5.468;2023-03-05T15:00:31;35.23;;;19.87;;
13461;SDS011;6803;45.264;5.468;2023-03-05T15:03:10;40.17;;;21.00;;
13461;SDS011;6803;45.264;5.468;2023-03-05T15:05:41;37.60;;;19.77;;
13461;SDS011;6803;45.264;5.468;2023-03-05T15:08:14;36.87;;;20.70;;
13461;SDS011;6803;45.264;5.468;2023-03-05T15:10:48;34.57;;;19.47;;
13461;SDS011;6803;45.264;5.468;2023-03-05T15:13:20;38.73;;;19.77;;
13461;SDS011;6803;45.264;5.468;2023-03-05T15:15:51;35.23;;;20.17;;
13461;SDS011;6803;45.264;5.468;2023-03-05T15:18:23;43.67;;;21.03;;
13461;SDS011;6803;45.264;5.468;2023-03-05T15:20:54;37.03;;;20.63;;
13461;SDS011;6803;45.264;5.468;2023-03-05T15:23:26;39.77;;;19.70;;
13461;SDS011;6803;45.264;5.468;2023-03-05T15:25:58;36.77;;;19.13;;
13461;SDS011;6803;45.264;5.468;2023-03-05T15:28:32;35.47;;;19.97;;
13461;SDS011;6803;45.264;5.468;2023-03-05T15:31:11;36.57;;;20.00;;
13461;SDS011;6803;45.264;5.468;2023-03-05T15:33:45;38.17;;;21.50;;
13461;SDS011;6803;45.264;5.468;2023-03-05T15:36:17;39.87;;;21.70;;